Time;durP1;ratioP1;P1;durP2;ratioP2;P2;SDS_P1;SDS_P2;PMS_P1;PMS_P2;Temp;Humidity;BMP_temperature;BMP_pressure;BME280_temperature;BME280_humidity;BME280_pressure;Samples;Min_cycle;Max_cycle;Signal;HPM_P1;HPM_P2
2024/01/04 00:01:13;;;;;;;1.17;0.20;;;6.60;99.90;;;;;;5075139;28;20044;-58
2024/01/04 00:03:39;;;;;;;2.03;0.20;;;6.50;99.90;;;;;;5075130;28;20110;-58
2024/01/04 00:06:05;;;;;;;0.68;0.10;;;6.60;99.90;;;;;;5074035;28;20131;-58
2024/01/04 00:08:31;;;;;;;1.40;0.20;;;6.50;99.90;;;;;;5074783;28;20143;-58
2024/01/04 00:10:57;;;;;;;1.00;0.20;;;6.50;99.90;;;;;;5074779;28;20448;-58
2024/01/04 00:13:24;;;;;;;2.42;0.20;;;6.50;99.90;;;;;;5074940;28;20060;-57
2024/01/04 00:15:49;;;;;;;2.05;0.20;;;6.40;99.90;;;;;;5074924;28;20047;-58
2024/01/04 00:18:15;;;;;;;0.53;0.10;;;6.40;99.90;;;;;;5075151;28;20040;-58
2024/01/04 00:20:42;;;;;;;0.67;0.10;;;6.40;99.90;;;;;;5074823;28;20414;-58
2024/01/04 00:23:07;;;;;;;0.10;0.10;;;6.40;99.90;;;;;;5074619;28;20040;-58
2024/01/04 00:25:33;;;;;;;1.57;0.20;;;6.40;99.90;;;;;;5073458;28;20044;-58
2024/01/04 00:27:59;;;;;;;2.17;0.30;;;6.40;99.90;;;;;;5074224;28;20076;-57
2024/01/04 00:30:25;;;;;;;0.93;0.10;;;6.40;99.90;;;;;;5074704;28;20498;-58
2024/01/04 00:32:51;;;;;;;3.10;0.30;;;6.40;99.90;;;;;;5074428;28;20091;-58
2024/01/04 00:35:16;;;;;;;0.83;0.10;;;6.40;99.90;;;;;;5073991;28;20048;-58
2024/01/04 00:37:42;;;;;;;2.93;0.20;;;6.30;99.90;;;;;;5074463;28;20040;-58
2024/01/04 00:40:08;;;;;;;0.40;0.20;;;6.30;99.90;;;;;;5074605;28;20504;-58
2024/01/04 00:42:35;;;;;;;0.52;0.20;;;6.30;99.90;;;;;;5074155;28;20055;-57
2024/01/04 00:45:01;;;;;;;2.20;0.40;;;6.30;99.90;;;;;;5074601;28;20044;-58
2024/01/04 00:47:26;;;;;;;0.30;0.13;;;6.30;99.90;;;;;;5074234;28;20494;-58
2024/01/04 00:49:52;;;;;;;0.50;0.10;;;6.30;99.90;;;;;;5074415;28;20424;-58
2024/01/04 00:52:17;;;;;;;0.90;0.20;;;6.20;99.90;;;;;;5074269;28;20431;-58
2024/01/04 00:54:43;;;;;;;0.53;0.10;;;6.20;99.90;;;;;;5074302;28;20403;-58
2024/01/04 00:57:09;;;;;;;0.83;0.20;;;6.20;99.90;;;;;;5073986;28;20043;-58
2024/01/04 00:59:34;;;;;;;1.23;0.50;;;6.20;99.90;;;;;;5074118;28;20101;-58
2024/01/04 01:02:00;;;;;;;1.13;0.20;;;6.20;99.90;;;;;;5074278;28;20040;-58
2024/01/04 01:04:26;;;;;;;1.27;0.20;;;6.20;99.90;;;;;;5073744;28;20052;-58
2024/01/04 01:06:52;;;;;;;2.15;0.35;;;6.20;99.90;;;;;;5072812;28;20056;-58
2024/01/04 01:09:18;;;;;;;2.90;0.20;;;6.20;99.90;;;;;;5074069;28;20059;-58
2024/01/04 01:11:43;;;;;;;1.70;0.20;;;6.20;99.90;;;;;;5073818;28;20044;-57
2024/01/04 01:14:09;;;;;;;3.50;0.20;;;6.20;99.90;;;;;;5073949;28;20083;-57
2024/01/04 01:16:35;;;;;;;0.87;0.23;;;6.20;99.90;;;;;;5073818;28;20097;-58
2024/01/04 01:19:00;;;;;;;1.10;0.20;;;6.10;99.90;;;;;;5073791;28;20041;-58
2024/01/04 01:21:26;;;;;;;2.93;0.20;;;6.10;99.90;;;;;;5072711;28;20047;-58
2024/01/04 01:23:52;;;;;;;0.30;0.10;;;6.10;99.90;;;;;;5073592;28;20051;-57
2024/01/04 01:26:17;;;;;;;1.53;0.30;;;6.10;99.90;;;;;;5073468;28;20080;-57
2024/01/04 01:28:43;;;;;;;0.53;0.10;;;6.10;99.90;;;;;;5073701;28;20097;-58
2024/01/04 01:31:09;;;;;;;1.00;0.20;;;6.00;99.90;;;;;;5073617;28;20056;-58
2024/01/04 01:33:34;;;;;;;6.20;0.30;;;5.90;99.90;;;;;;5073681;28;20045;-57
2024/01/04 01:36:02;;;;;;;1.90;0.33;;;5.90;99.90;;;;;;5073740;28;20143;-57
2024/01/04 01:38:27;;;;;;;2.33;0.17;;;5.90;99.90;;;;;;5073534;28;20049;-57
2024/01/04 01:40:53;;;;;;;2.13;0.20;;;5.90;99.90;;;;;;5073357;28;20459;-58
2024/01/04 01:43:18;;;;;;;0.83;0.17;;;5.80;99.90;;;;;;5073557;28;20050;-57
2024/01/04 01:45:46;;;;;;;3.53;0.30;;;5.70;99.90;;;;;;5074169;28;20095;-57
2024/01/04 01:48:14;;;;;;;2.22;0.13;;;5.80;99.90;;;;;;5077601;28;20097;-57
2024/01/04 01:50:40;;;;;;;1.00;0.15;;;5.70;99.90;;;;;;5077673;28;20385;-57
2024/01/04 01:53:07;;;;;;;2.27;0.27;;;5.70;99.90;;;;;;5077476;28;20048;-57
2024/01/04 01:55:33;;;;;;;2.65;0.85;;;5.60;99.90;;;;;;5077373;28;20059;-58
2024/01/04 01:57:59;;;;;;;2.07;0.20;;;5.60;99.90;;;;;;5077536;28;20045;-57
2024/01/04 02:00:25;;;;;;;1.30;0.20;;;5.60;99.90;;;;;;5077384;28;20080;-57
2024/01/04 02:02:50;;;;;;;1.20;0.20;;;5.60;99.90;;;;;;5076330;28;20141;-57
2024/01/04 02:05:16;;;;;;;3.43;0.53;;;5.60;99.90;;;;;;5077408;28;20043;-57
2024/01/04 02:07:45;;;;;;;1.38;0.20;;;5.60;99.90;;;;;;5076035;28;20458;-57
2024/01/04 02:10:12;;;;;;;0.98;0.20;;;5.50;99.90;;;;;;5077007;28;20051;-57
2024/01/04 02:12:38;;;;;;;0.45;0.10;;;5.50;99.90;;;;;;5077563;28;20075;-58
2024/01/04 02:15:04;;;;;;;0.90;0.20;;;5.50;99.90;;;;;;5077231;28;20551;-58
2024/01/04 02:17:30;;;;;;;2.17;0.30;;;5.50;99.90;;;;;;5076304;28;20049;-57
2024/01/04 02:19:59;;;;;;;0.87;0.20;;;5.50;99.90;;;;;;5077146;28;20058;-58
2024/01/04 02:22:24;;;;;;;1.92;0.20;;;5.50;99.90;;;;;;5076977;28;20041;-57
2024/01/04 02:24:50;;;;;;;2.63;0.20;;;5.50;99.90;;;;;;5076741;28;20062;-57
2024/01/04 02:27:17;;;;;;;0.77;0.10;;;5.40;99.90;;;;;;5076923;28;20041;-58
2024/01/04 02:29:43;;;;;;;1.55;0.20;;;5.50;99.90;;;;;;5076902;28;20049;-57
2024/01/04 02:32:08;;;;;;;2.97;0.23;;;5.40;99.90;;;;;;5076032;28;20484;-58
2024/01/04 02:34:34;;;;;;;1.47;0.40;;;5.40;99.90;;;;;;5076641;28;20079;-58
2024/01/04 02:37:00;;;;;;;3.10;0.13;;;5.40;99.90;;;;;;5076628;28;20563;-58
2024/01/04 02:39:25;;;;;;;0.20;0.10;;;5.40;99.90;;;;;;5075326;28;20047;-57
2024/01/04 02:41:51;;;;;;;2.23;0.20;;;5.30;99.90;;;;;;5059088;28;20058;-57
2024/01/04 02:44:17;;;;;;;1.47;0.20;;;5.40;99.90;;;;;;5076682;28;20052;-57
2024/01/04 02:46:43;;;;;;;0.47;0.13;;;5.30;99.90;;;;;;5076454;28;20503;-57
2024/01/04 02:49:08;;;;;;;0.87;0.17;;;5.30;99.90;;;;;;5076433;28;20049;-58
2024/01/04 02:51:34;;;;;;;0.43;0.10;;;5.30;99.90;;;;;;5076334;28;20309;-57
2024/01/04 02:54:00;;;;;;;0.77;0.20;;;5.30;99.90;;;;;;5076275;28;20071;-57
2024/01/04 02:56:26;;;;;;;2.40;0.20;;;5.30;99.90;;;;;;5076391;28;20076;-57
2024/01/04 02:58:51;;;;;;;0.47;0.10;;;5.30;99.90;;;;;;5092931;28;20062;-58
2024/01/04 03:01:24;;;;;;;0.67;0.17;;;5.30;99.90;;;;;;5076532;28;20048;-58
2024/01/04 03:03:55;;;;;;;0.40;0.00;;;5.30;99.90;;;;;;5076256;28;20056;-58
2024/01/04 03:06:25;;;;;;;1.90;0.22;;;5.30;99.90;;;;;;5075924;28;20048;-57
2024/01/04 03:08:51;;;;;;;1.40;0.40;;;5.30;99.90;;;;;;5076259;28;20149;-57
2024/01/04 03:11:18;;;;;;;1.45;0.10;;;5.30;99.90;;;;;;5074963;28;20044;-58
2024/01/04 03:13:46;;;;;;;1.58;0.20;;;5.30;99.90;;;;;;5076115;28;20049;-58
2024/01/04 03:16:12;;;;;;;0.77;0.30;;;5.30;99.90;;;;;;5075895;28;20123;-58
2024/01/04 03:18:38;;;;;;;1.00;0.10;;;5.30;99.90;;;;;;5075988;28;20098;-57
2024/01/04 03:21:06;;;;;;;0.90;0.20;;;5.20;99.90;;;;;;5075792;28;20044;-57
2024/01/04 03:23:32;;;;;;;4.13;0.38;;;5.20;99.90;;;;;;5075064;28;20222;-57
2024/01/04 03:25:58;;;;;;;0.73;0.20;;;5.20;99.90;;;;;;5075795;28;20144;-57
2024/01/04 03:28:23;;;;;;;0.40;0.20;;;5.30;99.90;;;;;;5075854;28;20458;-57
2024/01/04 03:30:49;;;;;;;0.77;0.17;;;5.20;99.90;;;;;;5075870;28;20499;-58
2024/01/04 03:33:15;;;;;;;1.43;0.20;;;5.20;99.90;;;;;;5075673;28;20044;-58
2024/01/04 03:35:40;;;;;;;3.60;0.20;;;5.20;99.90;;;;;;5075400;28;20041;-57
2024/01/04 03:38:06;;;;;;;0.40;0.10;;;5.20;99.90;;;;;;5075352;28;20093;-57
2024/01/04 03:40:32;;;;;;;0.80;0.10;;;5.20;99.90;;;;;;5075521;28;20559;-58
2024/01/04 03:42:57;;;;;;;3.47;0.20;;;5.10;99.90;;;;;;5075579;28;20063;-58
2024/01/04 03:45:23;;;;;;;0.77;0.10;;;5.10;99.90;;;;;;5075439;28;20052;-58
2024/01/04 03:47:49;;;;;;;0.73;0.13;;;5.10;99.90;;;;;;5075496;28;20044;-57
2024/01/04 03:50:15;;;;;;;0.40;0.10;;;5.10;99.90;;;;;;5075340;28;20066;-57
2024/01/04 03:52:40;;;;;;;1.23;0.20;;;5.10;99.90;;;;;;5075348;28;20048;-58
2024/01/04 03:55:06;;;;;;;0.90;0.20;;;5.10;99.90;;;;;;5075665;28;20047;-58
2024/01/04 03:57:32;;;;;;;0.63;0.20;;;5.10;99.90;;;;;;5075696;28;20384;-58
2024/01/04 03:59:58;;;;;;;2.37;0.30;;;5.10;99.90;;;;;;5074108;28;20051;-58
2024/01/04 04:02:23;;;;;;;3.10;0.30;;;5.10;99.90;;;;;;5075013;28;20049;-58
2024/01/04 04:04:49;;;;;;;1.03;0.20;;;5.10;99.90;;;;;;5057363;28;20048;-57
2024/01/04 04:07:15;;;;;;;3.07;0.27;;;5.10;99.90;;;;;;5074871;28;20154;-57
2024/01/04 04:09:41;;;;;;;0.27;0.10;;;5.10;99.90;;;;;;5074494;28;20043;-57
2024/01/04 04:12:06;;;;;;;0.33;0.10;;;5.10;99.90;;;;;;5075020;28;20093;-57
2024/01/04 04:14:34;;;;;;;4.03;0.27;;;5.10;99.90;;;;;;5073809;28;20051;-57
2024/01/04 04:17:03;;;;;;;1.45;0.30;;;5.00;99.90;;;;;;5074138;28;20056;-57
2024/01/04 04:19:28;;;;;;;0.77;0.28;;;5.00;99.90;;;;;;5074628;28;20101;-58
2024/01/04 04:21:54;;;;;;;1.33;0.20;;;5.00;99.90;;;;;;5074943;28;20044;-57
2024/01/04 04:24:20;;;;;;;1.53;0.20;;;5.00;99.90;;;;;;5073815;28;20515;-57
2024/01/04 04:26:45;;;;;;;2.20;0.23;;;5.00;99.90;;;;;;5073454;28;20045;-58
2024/01/04 04:29:11;;;;;;;2.63;0.20;;;5.00;99.90;;;;;;5074649;28;20048;-57
2024/01/04 04:31:37;;;;;;;2.43;0.37;;;5.00;99.90;;;;;;5074616;28;20052;-58
2024/01/04 04:34:02;;;;;;;1.40;0.37;;;5.00;99.90;;;;;;5073354;28;20131;-57
2024/01/04 04:36:28;;;;;;;0.50;0.10;;;5.00;99.90;;;;;;5073237;28;20190;-56
2024/01/04 04:38:54;;;;;;;3.37;0.40;;;5.00;99.90;;;;;;5074478;28;20123;-57
2024/01/04 04:41:19;;;;;;;0.63;0.20;;;4.90;99.90;;;;;;5074406;28;20044;-57
2024/01/04 04:43:45;;;;;;;0.40;0.10;;;4.90;99.90;;;;;;5074289;28;20040;-57
2024/01/04 04:46:12;;;;;;;0.83;0.23;;;4.90;99.90;;;;;;5074282;28;20131;-57
2024/01/04 04:48:37;;;;;;;2.03;0.20;;;4.90;99.90;;;;;;5074211;28;20395;-56
2024/01/04 04:51:03;;;;;;;0.87;0.33;;;5.00;99.90;;;;;;5073987;28;20047;-57
2024/01/04 04:53:29;;;;;;;1.47;0.30;;;5.00;99.90;;;;;;5074232;28;20442;-57
2024/01/04 04:55:55;;;;;;;2.17;0.23;;;5.00;99.90;;;;;;5074136;28;20067;-57
2024/01/04 04:58:20;;;;;;;1.33;0.20;;;5.00;99.90;;;;;;5074254;28;20044;-57
2024/01/04 05:00:46;;;;;;;1.47;0.30;;;5.00;99.90;;;;;;5074053;28;20513;-57
2024/01/04 05:03:11;;;;;;;0.97;0.20;;;5.00;99.90;;;;;;5074188;28;20519;-56
2024/01/04 05:05:37;;;;;;;1.33;0.20;;;5.00;99.90;;;;;;5073743;28;20136;-57
2024/01/04 05:08:04;;;;;;;2.60;0.40;;;5.00;99.90;;;;;;5073987;28;20147;-57
2024/01/04 05:10:30;;;;;;;0.40;0.10;;;4.90;99.90;;;;;;5073937;28;20059;-58
2024/01/04 05:12:58;;;;;;;2.63;0.30;;;4.90;99.90;;;;;;5073937;28;20044;-58
2024/01/04 05:15:24;;;;;;;0.68;0.25;;;4.90;99.90;;;;;;5074121;28;20067;-57
2024/01/04 05:17:50;;;;;;;3.33;0.20;;;4.90;99.90;;;;;;5072768;28;20491;-56
2024/01/04 05:20:16;;;;;;;2.57;0.23;;;4.80;99.90;;;;;;5072949;28;20051;-56
2024/01/04 05:22:41;;;;;;;1.50;0.27;;;4.80;99.90;;;;;;5072771;28;20052;-57
2024/01/04 05:25:08;;;;;;;0.43;0.17;;;4.80;99.90;;;;;;5073819;28;20056;-57
2024/01/04 05:27:33;;;;;;;0.60;0.22;;;4.80;99.90;;;;;;5073514;28;20049;-58
2024/01/04 05:29:59;;;;;;;1.13;0.20;;;4.80;99.90;;;;;;5073671;28;20060;-58
2024/01/04 05:32:24;;;;;;;1.37;0.23;;;4.70;99.90;;;;;;5073500;28;20059;-56
2024/01/04 05:34:50;;;;;;;1.67;0.20;;;4.70;99.90;;;;;;5073483;28;20545;-57
2024/01/04 05:37:16;;;;;;;0.20;0.10;;;4.70;99.90;;;;;;5073648;28;20047;-57
2024/01/04 05:39:42;;;;;;;2.77;0.27;;;4.70;99.90;;;;;;5073624;28;20048;-57
2024/01/04 05:42:08;;;;;;;1.92;0.22;;;4.60;99.90;;;;;;5073583;28;20048;-57
2024/01/04 05:44:34;;;;;;;0.73;0.13;;;4.60;99.90;;;;;;5073536;28;20059;-57
2024/01/04 05:46:59;;;;;;;1.73;0.30;;;4.60;99.90;;;;;;5073454;28;20066;-57
2024/01/04 05:49:25;;;;;;;1.17;0.37;;;4.60;99.90;;;;;;5073376;28;20063;-57
2024/01/04 05:51:50;;;;;;;0.93;0.20;;;4.60;99.90;;;;;;5072340;28;20064;-57
2024/01/04 05:54:16;;;;;;;1.33;0.30;;;4.60;99.90;;;;;;5056093;28;20053;-57
2024/01/04 05:56:44;;;;;;;1.70;0.17;;;4.50;99.90;;;;;;5073466;28;20097;-57
2024/01/04 05:59:10;;;;;;;1.02;0.20;;;4.60;99.90;;;;;;5073351;28;20056;-57
2024/01/04 06:01:38;;;;;;;0.80;0.20;;;4.50;99.90;;;;;;5073394;28;20124;-57
2024/01/04 06:04:04;;;;;;;2.90;0.10;;;4.40;99.90;;;;;;5072153;28;20110;-57
2024/01/04 06:06:30;;;;;;;0.25;0.10;;;4.50;99.90;;;;;;5073522;28;20098;-57
2024/01/04 06:08:56;;;;;;;1.00;0.27;;;4.40;99.90;;;;;;5073851;28;20048;-57
2024/01/04 06:11:21;;;;;;;0.90;0.30;;;4.40;99.90;;;;;;5073515;28;20091;-56
2024/01/04 06:13:48;;;;;;;0.73;0.10;;;4.50;99.90;;;;;;5072587;28;20060;-57
2024/01/04 06:16:13;;;;;;;1.35;0.20;;;4.40;99.90;;;;;;5073248;28;20101;-55
2024/01/04 06:18:39;;;;;;;3.57;0.30;;;4.40;99.90;;;;;;5073027;28;20123;-57
2024/01/04 06:21:05;;;;;;;1.33;0.30;;;4.40;99.90;;;;;;5073206;28;20589;-57
2024/01/04 06:23:31;;;;;;;0.63;0.30;;;4.40;99.90;;;;;;5072389;28;20044;-56
2024/01/04 06:25:57;;;;;;;0.22;0.10;;;4.40;99.90;;;;;;5072285;28;20080;-57
2024/01/04 06:28:23;;;;;;;1.57;0.23;;;4.40;99.90;;;;;;5072977;28;20122;-57
2024/01/04 06:30:49;;;;;;;0.25;0.10;;;4.40;99.90;;;;;;5072969;28;20084;-57
2024/01/04 06:33:15;;;;;;;2.27;0.20;;;4.30;99.90;;;;;;5075589;28;20181;-57
2024/01/04 06:35:41;;;;;;;1.45;0.17;;;4.30;99.90;;;;;;5075900;28;20135;-57
2024/01/04 06:38:10;;;;;;;0.53;0.13;;;4.30;99.90;;;;;;5076702;28;20115;-57
2024/01/04 06:40:37;;;;;;;2.42;0.30;;;4.30;99.90;;;;;;5059343;28;20048;-57
2024/01/04 06:43:03;;;;;;;1.42;0.25;;;4.30;99.90;;;;;;5075520;28;20052;-57
2024/01/04 06:45:32;;;;;;;0.95;0.20;;;4.30;99.90;;;;;;5076498;28;20048;-56
2024/01/04 06:47:57;;;;;;;1.38;0.22;;;4.40;99.90;;;;;;5076711;28;20090;-57
2024/01/04 06:50:23;;;;;;;1.00;0.20;;;4.30;99.90;;;;;;5076949;28;20492;-57
2024/01/04 06:52:49;;;;;;;0.47;0.10;;;4.30;99.90;;;;;;5076822;28;20090;-57
2024/01/04 06:55:15;;;;;;;0.43;0.20;;;4.30;99.90;;;;;;5076530;28;20543;-57
2024/01/04 06:57:41;;;;;;;1.83;0.17;;;4.30;99.90;;;;;;5076442;28;20040;-57
2024/01/04 07:00:08;;;;;;;2.45;0.30;;;4.30;99.90;;;;;;5076380;28;20087;-56
2024/01/04 07:02:35;;;;;;;2.35;0.30;;;4.30;99.90;;;;;;5076303;28;20105;-57
2024/01/04 07:05:05;;;;;;;1.70;0.22;;;4.30;99.90;;;;;;5076220;28;20060;-57
2024/01/04 07:07:32;;;;;;;1.85;0.20;;;4.30;99.90;;;;;;5058220;28;20151;-57
2024/01/04 07:09:58;;;;;;;2.03;0.30;;;4.30;99.90;;;;;;5076160;28;20524;-57
2024/01/04 07:12:25;;;;;;;1.30;0.20;;;4.30;99.90;;;;;;5076040;28;20080;-57
2024/01/04 07:14:51;;;;;;;;;;;4.30;99.90;;;;;;5076340;28;20045;-56
2024/01/04 07:17:16;;;;;;;1.52;0.20;;;4.30;99.90;;;;;;5074927;28;19920;-57
2024/01/04 07:19:45;;;;;;;0.93;0.30;;;4.30;99.90;;;;;;5076200;28;20087;-56
2024/01/04 07:22:11;;;;;;;2.72;0.63;;;4.30;99.90;;;;;;5075903;28;20048;-57
2024/01/04 07:24:38;;;;;;;1.80;0.20;;;4.30;99.90;;;;;;5075902;28;20041;-58
2024/01/04 07:27:04;;;;;;;2.60;0.17;;;4.30;99.90;;;;;;5075667;28;20495;-57
2024/01/04 07:29:31;;;;;;;1.65;0.03;;;4.30;99.90;;;;;;5075746;28;20393;-56
2024/01/04 07:31:57;;;;;;;1.75;0.28;;;4.30;99.90;;;;;;5075779;28;20049;-56
2024/01/04 07:34:22;;;;;;;1.60;0.20;;;4.30;99.90;;;;;;5075699;28;20044;-56
2024/01/04 07:36:48;;;;;;;1.30;0.30;;;4.30;99.90;;;;;;5075596;28;20048;-56
2024/01/04 07:39:15;;;;;;;1.13;0.20;;;4.30;99.90;;;;;;5075677;28;20127;-56
2024/01/04 07:41:41;;;;;;;1.27;0.20;;;4.20;99.90;;;;;;5075750;28;20395;-56
2024/01/04 07:44:07;;;;;;;1.50;0.33;;;4.20;99.90;;;;;;5074360;28;20053;-56
2024/01/04 07:46:33;;;;;;;2.15;0.30;;;4.20;99.90;;;;;;5075450;28;20159;-56
2024/01/04 07:48:59;;;;;;;1.40;0.37;;;4.20;99.90;;;;;;5075505;28;20145;-56
2024/01/04 07:51:24;;;;;;;0.87;0.33;;;4.20;99.90;;;;;;5075487;28;20044;-56
2024/01/04 07:53:50;;;;;;;0.70;0.23;;;4.20;99.90;;;;;;5075228;28;20049;-56
2024/01/04 07:56:16;;;;;;;2.50;0.27;;;4.20;99.90;;;;;;5074414;28;20087;-56
2024/01/04 07:58:41;;;;;;;0.80;0.40;;;4.20;99.90;;;;;;5074092;28;20144;-56
2024/01/04 08:01:07;;;;;;;0.87;0.40;;;4.20;99.90;;;;;;5075591;28;20083;-56
2024/01/04 08:03:33;;;;;;;1.63;0.27;;;4.10;99.90;;;;;;5075356;28;20048;-57
2024/01/04 08:05:59;;;;;;;1.87;0.30;;;4.10;99.90;;;;;;5075186;28;20097;-57
2024/01/04 08:08:27;;;;;;;0.95;0.20;;;4.10;99.90;;;;;;5074699;28;20057;-57
2024/01/04 08:10:53;;;;;;;0.52;0.20;;;4.10;99.90;;;;;;5074847;28;20059;-57
2024/01/04 08:13:19;;;;;;;0.83;0.20;;;4.10;99.90;;;;;;5074798;28;20044;-56
2024/01/04 08:15:44;;;;;;;1.10;0.27;;;4.00;99.90;;;;;;5074914;28;20097;-56
2024/01/04 08:18:10;;;;;;;2.60;0.30;;;4.10;99.90;;;;;;5075387;28;20101;-57
2024/01/04 08:20:36;;;;;;;2.73;0.33;;;4.10;99.90;;;;;;5074730;28;20419;-56
2024/01/04 08:23:01;;;;;;;0.93;0.40;;;4.00;99.90;;;;;;5074582;28;20396;-56
2024/01/04 08:25:27;;;;;;;2.10;0.30;;;4.10;99.90;;;;;;5074757;28;20048;-56
2024/01/04 08:27:54;;;;;;;1.07;0.40;;;4.10;99.90;;;;;;5074463;28;20139;-56
2024/01/04 08:30:20;;;;;;;0.30;0.20;;;4.10;99.90;;;;;;5073992;28;20056;-56
2024/01/04 08:32:45;;;;;;;0.73;0.20;;;4.10;99.90;;;;;;5074630;28;20399;-56
2024/01/04 08:35:11;;;;;;;0.97;0.63;;;4.20;99.90;;;;;;5074619;28;20502;-57
2024/01/04 08:37:37;;;;;;;1.47;0.30;;;4.20;99.90;;;;;;5074551;28;20488;-56
2024/01/04 08:40:04;;;;;;;0.50;0.20;;;4.20;99.90;;;;;;5074205;28;20040;-56
2024/01/04 08:42:30;;;;;;;0.70;0.20;;;4.20;99.90;;;;;;5073191;28;20088;-56
2024/01/04 08:44:58;;;;;;;1.93;0.33;;;4.30;99.90;;;;;;5074792;28;20084;-56
2024/01/04 08:47:24;;;;;;;1.13;0.13;;;4.30;99.90;;;;;;5073059;28;20052;-57
2024/01/04 08:49:49;;;;;;;1.63;0.30;;;4.30;99.90;;;;;;5074125;28;20046;-56
2024/01/04 08:52:15;;;;;;;1.90;0.20;;;4.30;99.90;;;;;;5074292;28;20037;-57
2024/01/04 08:54:41;;;;;;;0.97;0.10;;;4.30;99.90;;;;;;5073052;28;20049;-57
2024/01/04 08:57:07;;;;;;;0.67;0.20;;;4.30;99.90;;;;;;5074115;28;20574;-56
2024/01/04 08:59:34;;;;;;;0.60;0.20;;;4.40;99.90;;;;;;5074121;28;20044;-56
2024/01/04 09:01:59;;;;;;;1.42;0.20;;;4.40;99.90;;;;;;5074076;28;20084;-56
2024/01/04 09:04:25;;;;;;;1.00;0.20;;;4.40;99.90;;;;;;5072938;28;20056;-57
2024/01/04 09:06:51;;;;;;;1.43;0.30;;;4.50;99.90;;;;;;5073768;28;20040;-56
2024/01/04 09:09:17;;;;;;;1.10;0.30;;;4.40;99.90;;;;;;5073852;28;20400;-57
2024/01/04 09:11:48;;;;;;;1.37;0.27;;;4.40;99.90;;;;;;5073682;28;20044;-56
2024/01/04 09:14:14;;;;;;;0.75;0.17;;;4.40;99.90;;;;;;5073803;28;20499;-57
2024/01/04 09:16:43;;;;;;;0.70;0.25;;;4.40;99.90;;;;;;5074076;28;20369;-56
2024/01/04 09:19:16;;;;;;;1.55;0.25;;;4.40;99.90;;;;;;5073882;28;20047;-57
2024/01/04 09:21:43;;;;;;;2.95;0.28;;;4.40;99.90;;;;;;5073727;28;20499;-56
2024/01/04 09:24:11;;;;;;;0.82;0.20;;;4.40;99.90;;;;;;5073504;28;20480;-58
2024/01/04 09:26:43;;;;;;;1.27;1.00;;;4.40;99.90;;;;;;5073758;28;20036;-56
2024/01/04 09:29:10;;;;;;;1.15;0.30;;;4.50;99.90;;;;;;5073688;28;20129;-57
2024/01/04 09:31:37;;;;;;;0.45;0.20;;;4.50;99.90;;;;;;5073481;28;20048;-57
2024/01/04 09:34:03;;;;;;;0.88;0.30;;;4.60;99.90;;;;;;5073529;28;20052;-56
2024/01/04 09:36:29;;;;;;;1.35;0.28;;;4.60;99.90;;;;;;5073711;28;20399;-57
2024/01/04 09:38:57;;;;;;;1.17;0.23;;;4.60;99.90;;;;;;5073328;28;20041;-56
2024/01/04 09:41:27;;;;;;;3.50;0.50;;;4.70;99.90;;;;;;5073727;28;20087;-56
2024/01/04 09:43:57;;;;;;;0.60;0.20;;;4.70;99.90;;;;;;5073450;28;20513;-56
2024/01/04 09:46:27;;;;;;;2.72;0.40;;;4.70;99.90;;;;;;5073415;28;20051;-56
2024/01/04 09:49:00;;;;;;;0.82;0.13;;;4.70;99.90;;;;;;5073439;28;20102;-56
2024/01/04 09:51:28;;;;;;;1.02;0.40;;;4.70;99.90;;;;;;5073364;28;20123;-56
2024/01/04 09:53:54;;;;;;;1.05;0.30;;;4.70;99.90;;;;;;5073187;28;20448;-56
2024/01/04 09:56:24;;;;;;;0.88;0.30;;;4.70;99.90;;;;;;5073519;28;20048;-56
2024/01/04 09:58:51;;;;;;;1.67;0.50;;;4.70;99.90;;;;;;5073336;28;20045;-56
2024/01/04 10:01:24;;;;;;;2.25;0.52;;;4.70;99.90;;;;;;5073550;28;20456;-56
2024/01/04 10:03:53;;;;;;;2.13;0.25;;;4.70;99.90;;;;;;5073234;28;20544;-56
2024/01/04 10:06:28;;;;;;;0.73;0.30;;;4.70;99.90;;;;;;5073355;28;20040;-56
2024/01/04 10:09:00;;;;;;;2.60;0.28;;;4.70;99.90;;;;;;5077153;28;20060;-56
2024/01/04 10:11:36;;;;;;;3.40;0.35;;;4.70;99.90;;;;;;5077597;28;20097;-56
2024/01/04 10:14:03;;;;;;;1.85;0.32;;;4.60;99.90;;;;;;5077194;28;20085;-56
2024/01/04 10:16:29;;;;;;;4.18;0.68;;;4.60;99.90;;;;;;5077073;28;20049;-56
2024/01/04 10:18:58;;;;;;;1.90;0.25;;;4.60;99.90;;;;;;5077189;28;20045;-56
2024/01/04 10:21:31;;;;;;;0.98;0.25;;;4.60;99.90;;;;;;5077081;28;20492;-56
2024/01/04 10:23:57;;;;;;;2.53;0.40;;;4.50;99.90;;;;;;5077121;28;20044;-56
2024/01/04 10:26:23;;;;;;;1.15;0.38;;;4.50;99.90;;;;;;5076883;28;20052;-56
2024/01/04 10:28:55;;;;;;;2.80;0.30;;;4.50;99.90;;;;;;5076669;28;20101;-55
2024/01/04 10:31:20;;;;;;;0.88;0.30;;;4.50;99.90;;;;;;5077541;28;20054;-56
2024/01/04 10:33:46;;;;;;;1.40;0.37;;;4.50;99.90;;;;;;5077243;28;20406;-56
2024/01/04 10:36:13;;;;;;;1.27;0.30;;;4.50;99.90;;;;;;5077023;28;20048;-55
2024/01/04 10:38:38;;;;;;;1.45;0.45;;;4.50;99.90;;;;;;5076810;28;20088;-56
2024/01/04 10:41:04;;;;;;;1.10;0.30;;;4.50;99.90;;;;;;5076747;28;20090;-56
2024/01/04 10:43:32;;;;;;;1.23;0.30;;;4.50;99.90;;;;;;5076521;28;20044;-55
2024/01/04 10:46:08;;;;;;;0.22;0.13;;;4.50;99.90;;;;;;5075708;28;20064;-56
2024/01/04 10:48:38;;;;;;;1.45;0.30;;;4.60;99.90;;;;;;5076613;28;20092;-55
2024/01/04 10:51:05;;;;;;;2.05;0.57;;;4.50;99.90;;;;;;5076505;28;20044;-55
2024/01/04 10:53:35;;;;;;;0.50;0.20;;;4.50;99.90;;;;;;5075242;28;20463;-56
2024/01/04 10:56:06;;;;;;;0.60;0.17;;;4.50;99.90;;;;;;5076327;28;20074;-55
2024/01/04 10:58:40;;;;;;;0.93;0.20;;;4.50;99.90;;;;;;5076632;28;20044;-56
2024/01/04 11:01:06;;;;;;;1.65;0.30;;;4.60;99.90;;;;;;5076429;28;20078;-56
2024/01/04 11:03:32;;;;;;;0.43;0.20;;;4.60;99.90;;;;;;5076347;28;20040;-56
2024/01/04 11:06:05;;;;;;;1.83;0.35;;;4.60;99.90;;;;;;5076272;28;20041;-56
2024/01/04 11:08:32;;;;;;;2.17;0.60;;;4.70;99.90;;;;;;5076170;28;20060;-56
2024/01/04 11:11:00;;;;;;;0.80;0.25;;;4.80;99.90;;;;;;5076206;28;20053;-56
2024/01/04 11:13:26;;;;;;;1.45;0.20;;;4.80;99.90;;;;;;5076080;28;20109;-56
2024/01/04 11:15:54;;;;;;;1.37;0.30;;;4.70;99.90;;;;;;5076174;28;20132;-56
2024/01/04 11:18:32;;;;;;;1.88;0.40;;;4.80;99.90;;;;;;5075058;28;20137;-56
2024/01/04 11:21:10;;;;;;;1.83;0.10;;;4.80;99.90;;;;;;5075971;28;20135;-56
2024/01/04 11:23:55;;;;;;;1.17;0.20;;;4.70;99.90;;;;;;5075968;28;20491;-56
2024/01/04 11:26:50;;;;;;;0.90;0.20;;;4.70;99.90;;;;;;5076202;28;20049;-56
2024/01/04 11:29:16;;;;;;;0.85;0.20;;;4.70;99.90;;;;;;5075950;28;20380;-55
2024/01/04 11:31:45;;;;;;;2.60;0.27;;;4.80;99.90;;;;;;5075891;28;20051;-56
2024/01/04 11:34:13;;;;;;;0.98;0.17;;;4.70;99.90;;;;;;5075767;28;20078;-56
2024/01/04 11:36:39;;;;;;;1.25;0.20;;;4.70;99.90;;;;;;5075791;28;20041;-56
2024/01/04 11:39:05;;;;;;;2.00;0.37;;;4.80;99.90;;;;;;5075881;28;20365;-56
2024/01/04 11:41:35;;;;;;;1.52;0.40;;;4.80;99.90;;;;;;5075590;28;20036;-56
2024/01/04 11:44:02;;;;;;;0.70;0.30;;;4.80;99.90;;;;;;5075471;28;20045;-55
2024/01/04 11:46:28;;;;;;;2.13;0.40;;;4.80;99.90;;;;;;5075417;28;20484;-56
2024/01/04 11:49:01;;;;;;;2.25;0.20;;;4.90;99.90;;;;;;5075393;28;20500;-56
2024/01/04 11:51:49;;;;;;;2.58;0.38;;;4.90;99.90;;;;;;5075379;28;20044;-56
2024/01/04 11:54:17;;;;;;;1.90;0.25;;;5.00;99.90;;;;;;5075360;28;20053;-56
2024/01/04 11:56:43;;;;;;;2.60;0.25;;;5.10;99.90;;;;;;5075166;28;20518;-56
2024/01/04 11:59:10;;;;;;;1.20;0.30;;;5.00;99.90;;;;;;5075174;28;20127;-56
2024/01/04 12:01:43;;;;;;;1.17;0.20;;;5.10;99.90;;;;;;5075113;28;20496;-55
2024/01/04 12:04:14;;;;;;;2.15;0.30;;;5.00;99.90;;;;;;5075165;28;20052;-56
2024/01/04 12:06:41;;;;;;;2.80;0.30;;;5.00;99.90;;;;;;5074868;28;20119;-55
2024/01/04 12:09:09;;;;;;;3.05;0.40;;;5.10;99.90;;;;;;5075212;28;20139;-56
2024/01/04 12:11:45;;;;;;;1.85;0.40;;;5.00;99.90;;;;;;5075009;28;20040;-56
2024/01/04 12:14:12;;;;;;;0.73;0.30;;;5.00;99.90;;;;;;5075142;28;20049;-56
2024/01/04 12:16:40;;;;;;;1.40;0.38;;;4.90;99.90;;;;;;5074966;28;20114;-56
2024/01/04 12:19:06;;;;;;;1.27;0.40;;;4.90;99.90;;;;;;5074865;28;20106;-56
2024/01/04 12:21:32;;;;;;;1.30;0.37;;;4.80;99.90;;;;;;5073407;28;20048;-55
2024/01/04 12:23:58;;;;;;;1.27;0.23;;;4.80;99.90;;;;;;5074862;28;20117;-56
2024/01/04 12:26:25;;;;;;;1.83;0.50;;;4.80;99.90;;;;;;5074628;28;20052;-56
2024/01/04 12:28:52;;;;;;;;;;;4.70;99.90;;;;;;5075045;28;20593;-56
2024/01/04 12:31:19;;;;;;;2.28;0.47;;;4.70;99.90;;;;;;5074130;28;19920;-56
2024/01/04 12:33:51;;;;;;;0.98;0.30;;;4.70;99.90;;;;;;5073655;28;20045;-56
2024/01/04 12:36:23;;;;;;;0.88;0.20;;;4.70;99.90;;;;;;5074341;28;20113;-55
2024/01/04 12:39:05;;;;;;;0.95;0.32;;;4.80;99.90;;;;;;5074489;28;20044;-55
2024/01/04 12:41:31;;;;;;;1.70;0.30;;;4.70;99.90;;;;;;5074454;28;20067;-56
2024/01/04 12:43:57;;;;;;;2.87;0.53;;;4.70;99.90;;;;;;5073366;28;20479;-56
2024/01/04 12:46:23;;;;;;;1.93;0.30;;;4.80;99.90;;;;;;5074335;28;20048;-56
2024/01/04 12:48:52;;;;;;;2.22;0.63;;;4.80;99.90;;;;;;5074140;28;20106;-56
2024/01/04 12:51:28;;;;;;;1.15;0.30;;;4.80;99.90;;;;;;5074708;28;20137;-55
2024/01/04 12:53:54;;;;;;;1.95;0.47;;;4.80;99.90;;;;;;5074558;28;20087;-56
2024/01/04 12:56:20;;;;;;;2.42;0.40;;;4.80;99.90;;;;;;5073347;28;20048;-56